createdAt,value
2023-04-16T00:00:43.181Z,9.75
2023-04-16T00:03:09.876Z,9.71
2023-04-16T00:05:36.669Z,9.69
2023-04-16T00:08:03.180Z,9.66
2023-04-16T00:10:29.661Z,9.61
2023-04-16T00:12:56.237Z,9.60
2023-04-16T00:15:23.248Z,9.54
2023-04-16T00:17:49.790Z,9.50
2023-04-16T00:20:16.513Z,9.47
2023-04-16T00:22:43.048Z,9.44
2023-04-16T00:25:09.681Z,9.40
2023-04-16T00:27:36.409Z,9.36
2023-04-16T00:30:03.433Z,9.33
2023-04-16T00:32:30.805Z,9.31
2023-04-16T00:34:57.392Z,9.24
2023-04-16T00:37:23.912Z,9.21
2023-04-16T00:39:50.588Z,9.22
2023-04-16T00:42:17.202Z,9.16
2023-04-16T00:44:43.681Z,9.12
2023-04-16T00:47:10.747Z,9.11
2023-04-16T00:49:37.748Z,9.10
2023-04-16T00:52:04.672Z,9.07
2023-04-16T00:54:31.890Z,9.05
2023-04-16T00:56:59.862Z,9.06
2023-04-16T00:59:27.340Z,9.05
2023-04-16T01:01:54.091Z,9.06
2023-04-16T01:04:21.557Z,9.05
2023-04-16T01:06:48.193Z,9.04
2023-04-16T01:09:14.698Z,9.04
2023-04-16T01:11:41.203Z,9.03
2023-04-16T01:14:08.611Z,9.03
2023-04-16T01:16:35.214Z,8.99
2023-04-16T01:19:01.793Z,8.99
2023-04-16T01:21:28.521Z,8.99
2023-04-16T01:23:55.036Z,8.98
2023-04-16T01:26:21.619Z,8.97
2023-04-16T01:28:48.127Z,8.97
2023-04-16T01:31:14.663Z,8.94
2023-04-16T01:33:41.228Z,8.92
2023-04-16T01:36:07.742Z,8.90
2023-04-16T01:38:34.225Z,8.89
2023-04-16T01:41:01.899Z,8.89
2023-04-16T01:43:28.441Z,8.87
2023-04-16T01:46:14.328Z,8.87
2023-04-16T01:48:40.948Z,8.86
2023-04-16T01:51:07.555Z,8.85
2023-04-16T01:53:36.582Z,8.85
2023-04-16T01:56:03.808Z,8.83
2023-04-16T01:58:31.401Z,8.84
2023-04-16T02:00:58.626Z,8.84
2023-04-16T02:03:25.445Z,8.82
2023-04-16T02:05:52.134Z,8.82
2023-04-16T02:08:18.714Z,8.84
2023-04-16T02:10:50.001Z,8.83
2023-04-16T02:13:16.995Z,8.84
2023-04-16T02:15:50.928Z,8.87
2023-04-16T02:18:17.613Z,8.87
2023-04-16T02:20:46.032Z,8.88
2023-04-16T02:23:15.074Z,8.87
2023-04-16T02:25:42.844Z,8.86
2023-04-16T02:28:13.472Z,8.84
2023-04-16T02:30:41.375Z,8.85
2023-04-16T02:33:09.480Z,8.89
2023-04-16T02:35:36.757Z,8.88
2023-04-16T02:38:04.295Z,8.87
2023-04-16T02:40:31.424Z,8.87
2023-04-16T02:42:58.401Z,8.87
2023-04-16T02:45:25.398Z,8.86
2023-04-16T02:47:52.224Z,8.85
2023-04-16T02:50:18.928Z,8.87
2023-04-16T02:52:45.497Z,8.87
2023-04-16T02:55:12.216Z,8.90
2023-04-16T02:57:38.806Z,8.91
2023-04-16T03:00:05.954Z,8.88
2023-04-16T03:02:32.643Z,8.91
2023-04-16T03:04:59.244Z,8.92
2023-04-16T03:07:26.267Z,8.95
2023-04-16T03:09:52.767Z,8.91
2023-04-16T03:12:19.316Z,8.92
2023-04-16T03:14:46.156Z,8.94
2023-04-16T03:17:12.746Z,8.93
2023-04-16T03:19:39.282Z,8.95
2023-04-16T03:22:05.792Z,8.97
2023-04-16T03:24:32.271Z,8.96
2023-04-16T03:26:59.031Z,8.97
2023-04-16T03:29:26.823Z,8.99
2023-04-16T03:31:53.465Z,9.01
2023-04-16T03:34:20.132Z,9.00
2023-04-16T03:36:46.700Z,9.01
2023-04-16T03:39:13.266Z,9.00
2023-04-16T03:41:39.762Z,8.99
2023-04-16T03:44:06.273Z,9.00
2023-04-16T03:46:33.010Z,9.00
2023-04-16T03:48:59.556Z,9.01
2023-04-16T03:51:26.538Z,9.01
2023-04-16T03:53:53.155Z,9.02
2023-04-16T03:56:19.775Z,9.01
2023-04-16T03:58:46.400Z,9.02
2023-04-16T04:01:12.941Z,9.02
2023-04-16T04:03:39.801Z,9.00
2023-04-16T04:06:08.339Z,9.00
2023-04-16T04:08:34.859Z,9.02
2023-04-16T04:11:01.392Z,8.99
2023-04-16T04:13:27.946Z,8.99
2023-04-16T04:15:54.591Z,8.99
2023-04-16T04:18:21.201Z,9.00
2023-04-16T04:20:47.783Z,9.01
2023-04-16T04:23:14.326Z,9.02
2023-04-16T04:25:40.823Z,9.00
2023-04-16T04:28:07.376Z,9.00
2023-04-16T04:30:35.759Z,9.01
2023-04-16T04:33:02.592Z,9.01
2023-04-16T04:35:30.285Z,9.02
2023-04-16T04:37:56.739Z,9.03
2023-04-16T04:40:23.237Z,9.03
2023-04-16T04:42:49.804Z,9.02
2023-04-16T04:45:16.619Z,9.03
2023-04-16T04:47:43.264Z,9.03
2023-04-16T04:50:10.124Z,9.03
2023-04-16T04:52:36.750Z,9.02
2023-04-16T04:55:03.757Z,9.00
2023-04-16T04:57:30.486Z,9.00
2023-04-16T04:59:56.952Z,9.01
2023-04-16T05:02:23.573Z,9.01
2023-04-16T05:04:50.123Z,9.02
2023-04-16T05:07:16.946Z,9.00
2023-04-16T05:09:43.476Z,9.00
2023-04-16T05:12:10.037Z,9.02
2023-04-16T05:14:36.535Z,9.01
2023-04-16T05:17:03.112Z,9.03
2023-04-16T05:19:29.735Z,9.06
2023-04-16T05:21:56.294Z,9.07
2023-04-16T05:24:22.886Z,9.06
2023-04-16T05:26:49.396Z,9.06
2023-04-16T05:29:15.948Z,9.07
2023-04-16T05:31:42.590Z,9.06
2023-04-16T05:34:09.098Z,9.07
2023-04-16T05:36:35.736Z,9.08
2023-04-16T05:39:02.253Z,9.09
2023-04-16T05:41:28.913Z,9.10
2023-04-16T05:43:55.441Z,9.11
2023-04-16T05:46:22.035Z,9.12
2023-04-16T05:48:48.667Z,9.11
2023-04-16T05:51:15.292Z,9.14
2023-04-16T05:53:42.058Z,9.14
2023-04-16T05:56:08.766Z,9.15
2023-04-16T05:58:35.301Z,9.15
2023-04-16T06:01:02.011Z,9.15
2023-04-16T06:03:28.586Z,9.17
2023-04-16T06:05:55.482Z,9.18
2023-04-16T06:08:22.087Z,9.20
2023-04-16T06:10:49.119Z,9.21
2023-04-16T06:13:15.719Z,9.22
2023-04-16T06:15:42.283Z,9.23
2023-04-16T06:18:09.087Z,9.26
2023-04-16T06:20:36.304Z,9.26
2023-04-16T06:23:02.769Z,9.28
2023-04-16T06:25:29.304Z,9.31
2023-04-16T06:27:55.790Z,9.31
2023-04-16T06:30:22.303Z,9.35
2023-04-16T06:32:49.679Z,9.37
2023-04-16T06:35:16.435Z,9.39
2023-04-16T06:37:42.927Z,9.43
2023-04-16T06:40:09.894Z,9.46
2023-04-16T06:42:36.646Z,9.50
2023-04-16T06:45:03.283Z,9.53
2023-04-16T06:47:29.941Z,9.59
2023-04-16T06:49:56.504Z,9.61
2023-04-16T06:52:23.132Z,9.66
2023-04-16T06:54:49.743Z,9.72
2023-04-16T06:57:16.494Z,9.77
2023-04-16T06:59:43.100Z,9.83
2023-04-16T07:02:10.703Z,9.88
2023-04-16T07:04:37.335Z,9.93
2023-04-16T07:07:03.924Z,9.98
2023-04-16T07:09:30.600Z,10.04
2023-04-16T07:11:57.202Z,10.09
2023-04-16T07:14:23.815Z,10.14
2023-04-16T07:16:50.498Z,10.18
2023-04-16T07:19:17.086Z,10.21
2023-04-16T07:21:43.815Z,10.26
2023-04-16T07:24:11.782Z,10.32
2023-04-16T07:26:38.422Z,10.37
2023-04-16T07:29:04.879Z,10.43
2023-04-16T07:31:31.558Z,10.48
2023-04-16T07:33:58.424Z,10.53
2023-04-16T07:36:25.014Z,10.59
2023-04-16T07:38:51.547Z,10.65
2023-04-16T07:41:18.084Z,10.72
2023-04-16T07:43:44.596Z,10.77
2023-04-16T07:46:11.473Z,10.85
2023-04-16T07:48:37.968Z,10.90
2023-04-16T07:51:04.537Z,10.96
2023-04-16T07:53:31.077Z,11.04
2023-04-16T07:55:57.599Z,11.11
2023-04-16T07:58:24.100Z,11.19
2023-04-16T08:00:51.583Z,11.27
2023-04-16T08:03:18.589Z,11.37
2023-04-16T08:05:45.301Z,11.43
2023-04-16T08:08:12.001Z,11.51
2023-04-16T08:10:39.381Z,11.56
2023-04-16T08:13:05.953Z,11.61
2023-04-16T08:15:32.574Z,11.67
2023-04-16T08:17:59.744Z,11.69
2023-04-16T08:20:26.430Z,11.76
2023-04-16T08:22:54.279Z,11.77
2023-04-16T08:25:21.292Z,11.81
2023-04-16T08:27:47.858Z,11.87
2023-04-16T08:30:15.219Z,11.92
2023-04-16T08:32:41.753Z,11.97
2023-04-16T08:35:08.879Z,12.02
2023-04-16T08:37:35.486Z,12.07
2023-04-16T08:40:02.640Z,12.13
2023-04-16T08:42:31.419Z,12.18
2023-04-16T08:45:11.401Z,12.25
2023-04-16T08:47:38.688Z,12.32
2023-04-16T08:50:06.339Z,12.37
2023-04-16T08:52:34.598Z,12.42
2023-04-16T08:55:12.050Z,12.47
2023-04-16T08:57:49.472Z,12.53
2023-04-16T09:00:17.391Z,12.58
2023-04-16T09:02:44.251Z,12.64
2023-04-16T09:05:14.236Z,12.68
2023-04-16T09:07:42.068Z,12.73
2023-04-16T09:10:09.918Z,12.78
2023-04-16T09:12:36.565Z,12.82
2023-04-16T09:15:03.676Z,12.87
2023-04-16T09:17:30.448Z,12.94
2023-04-16T09:19:57.031Z,12.97
2023-04-16T09:22:23.545Z,13.04
2023-04-16T09:24:50.041Z,13.11
2023-04-16T09:27:17.371Z,13.18
2023-04-16T09:29:43.903Z,13.24
2023-04-16T09:32:12.219Z,13.32
2023-04-16T09:35:02.315Z,13.38
2023-04-16T09:37:30.778Z,13.42
2023-04-16T09:40:07.229Z,13.50
2023-04-16T09:42:37.113Z,13.57
2023-04-16T09:45:05.675Z,13.66
2023-04-16T09:47:43.489Z,13.75
2023-04-16T09:50:17.736Z,13.84
2023-04-16T09:52:52.770Z,13.94
2023-04-16T09:55:27.671Z,14.03
2023-04-16T09:58:01.110Z,14.13
2023-04-16T10:00:29.724Z,14.21
2023-04-16T10:03:07.182Z,14.29
2023-04-16T10:05:34.178Z,14.34
2023-04-16T10:08:03.753Z,14.40
2023-04-16T10:10:30.620Z,14.46
2023-04-16T10:12:58.043Z,14.51
2023-04-16T10:15:25.212Z,14.58
2023-04-16T10:17:52.319Z,14.64
2023-04-16T10:20:19.239Z,14.68
2023-04-16T10:22:46.222Z,14.75
2023-04-16T10:25:13.450Z,14.78
2023-04-16T10:27:41.129Z,14.82
2023-04-16T10:30:08.886Z,14.84
2023-04-16T10:32:36.877Z,14.86
2023-04-16T10:35:03.648Z,14.85
2023-04-16T10:37:34.038Z,14.87
2023-04-16T10:40:00.597Z,14.85
2023-04-16T10:42:27.571Z,14.87
2023-04-16T10:44:54.102Z,14.90
2023-04-16T10:47:24.863Z,14.90
2023-04-16T10:49:51.994Z,14.91
2023-04-16T10:52:18.572Z,14.93
2023-04-16T10:54:47.859Z,14.94
2023-04-16T10:57:19.709Z,14.97
2023-04-16T10:59:48.828Z,14.99
2023-04-16T11:02:18.206Z,15.02
2023-04-16T11:04:46.619Z,15.05
2023-04-16T11:07:19.482Z,15.06
2023-04-16T11:09:51.099Z,15.08
2023-04-16T11:12:27.212Z,15.09
2023-04-16T11:14:58.108Z,15.09
2023-04-16T11:17:29.412Z,15.11
2023-04-16T11:19:56.449Z,15.11
2023-04-16T11:22:22.995Z,15.12
2023-04-16T11:24:55.057Z,15.14
2023-04-16T11:27:22.157Z,15.17
2023-04-16T11:30:06.407Z,15.21
2023-04-16T11:32:34.199Z,15.24
2023-04-16T11:35:04.505Z,15.27
2023-04-16T11:37:36.201Z,15.29
2023-04-16T11:40:07.107Z,15.32
2023-04-16T11:42:37.278Z,15.32
2023-04-16T11:45:04.954Z,15.35
2023-04-16T11:47:31.889Z,15.36
2023-04-16T11:50:15.041Z,15.35
2023-04-16T11:52:41.568Z,15.36
2023-04-16T11:55:08.536Z,15.37
2023-04-16T11:57:35.070Z,15.38
2023-04-16T12:00:03.992Z,15.39
2023-04-16T12:02:39.961Z,15.37
2023-04-16T12:05:30.318Z,15.37
2023-04-16T12:07:58.182Z,15.36
2023-04-16T12:10:25.368Z,15.36
2023-04-16T12:12:52.004Z,15.35
2023-04-16T12:15:18.851Z,15.36
2023-04-16T12:17:46.138Z,15.36
2023-04-16T12:20:14.988Z,15.37
2023-04-16T12:22:47.171Z,15.37
2023-04-16T12:25:15.947Z,15.36
2023-04-16T12:27:47.085Z,15.36
2023-04-16T12:30:15.460Z,15.35
2023-04-16T12:32:43.846Z,15.32
2023-04-16T12:35:11.663Z,15.32
2023-04-16T12:37:38.994Z,15.31
2023-04-16T12:40:07.572Z,14.95
2023-04-16T12:42:37.504Z,14.54
2023-04-16T12:45:05.465Z,14.18
2023-04-16T12:47:32.841Z,14.16
2023-04-16T12:49:59.360Z,14.06
2023-04-16T12:52:26.400Z,14.10
2023-04-16T12:54:53.382Z,14.09
2023-04-16T12:57:19.995Z,14.34
2023-04-16T12:59:47.123Z,14.52
2023-04-16T13:02:13.843Z,14.65
2023-04-16T13:04:40.651Z,14.73
2023-04-16T13:07:07.992Z,14.80
2023-04-16T13:09:34.549Z,14.85
2023-04-16T13:12:01.682Z,14.89
2023-04-16T13:14:28.238Z,14.93
2023-04-16T13:16:54.733Z,14.95
2023-04-16T13:19:22.260Z,14.98
2023-04-16T13:21:48.811Z,15.01
2023-04-16T13:24:15.504Z,15.05
2023-04-16T13:26:43.011Z,15.08
2023-04-16T13:29:10.020Z,15.13
2023-04-16T13:31:37.055Z,15.16
2023-04-16T13:34:05.257Z,15.20
2023-04-16T13:36:33.071Z,15.22
2023-04-16T13:38:59.931Z,15.25
2023-04-16T13:41:26.463Z,15.25
2023-04-16T13:43:53.895Z,15.26
2023-04-16T13:46:20.650Z,15.26
2023-04-16T13:48:47.250Z,15.26
2023-04-16T13:51:15.443Z,15.26
2023-04-16T13:53:41.966Z,15.26
2023-04-16T13:56:08.483Z,15.25
2023-04-16T13:58:35.233Z,15.26
2023-04-16T14:01:01.748Z,15.25
2023-04-16T14:03:28.496Z,15.24
2023-04-16T14:05:55.067Z,15.24
2023-04-16T14:08:21.571Z,15.24
2023-04-16T14:10:48.672Z,15.24
2023-04-16T14:13:15.462Z,15.24
2023-04-16T14:15:42.161Z,15.27
2023-04-16T14:18:08.697Z,15.32
2023-04-16T14:20:35.556Z,15.38
2023-04-16T14:23:02.104Z,15.44
2023-04-16T14:25:28.903Z,15.49
2023-04-16T14:27:55.396Z,15.53
2023-04-16T14:30:21.927Z,15.57
2023-04-16T14:32:48.473Z,15.59
2023-04-16T14:35:15.164Z,15.60
2023-04-16T14:37:41.810Z,15.60
2023-04-16T14:40:09.746Z,15.61
2023-04-16T14:42:37.397Z,15.62
2023-04-16T14:45:06.550Z,15.61
2023-04-16T14:47:36.530Z,15.61
2023-04-16T14:50:03.610Z,15.60
2023-04-16T14:52:33.045Z,15.57
2023-04-16T14:54:59.795Z,15.55
2023-04-16T14:57:26.800Z,15.54
2023-04-16T14:59:53.295Z,15.53
2023-04-16T15:02:20.059Z,15.53
2023-04-16T15:04:46.733Z,15.53
2023-04-16T15:07:13.281Z,15.52
2023-04-16T15:09:39.795Z,15.52
2023-04-16T15:12:06.434Z,15.50
2023-04-16T15:14:32.900Z,15.50
2023-04-16T15:16:59.475Z,15.51
2023-04-16T15:19:26.070Z,15.50
2023-04-16T15:21:52.595Z,15.49
2023-04-16T15:24:19.096Z,15.52
2023-04-16T15:26:45.566Z,15.50
2023-04-16T15:29:12.055Z,15.50
2023-04-16T15:31:38.605Z,15.50
2023-04-16T15:34:05.078Z,15.48
2023-04-16T15:36:31.742Z,15.48
2023-04-16T15:38:58.239Z,15.46
2023-04-16T15:41:25.003Z,15.46
2023-04-16T15:43:51.821Z,15.44
2023-04-16T15:46:18.357Z,15.43
2023-04-16T15:48:44.919Z,15.40
2023-04-16T15:51:11.581Z,15.38
2023-04-16T15:53:38.136Z,15.38
2023-04-16T15:56:04.785Z,15.35
2023-04-16T15:58:31.466Z,15.35
2023-04-16T16:00:58.287Z,15.35
2023-04-16T16:03:25.019Z,15.36
2023-04-16T16:05:51.806Z,15.36
2023-04-16T16:08:18.530Z,15.38
2023-04-16T16:10:45.164Z,15.39
2023-04-16T16:13:14.092Z,15.40
2023-04-16T16:15:43.537Z,15.39
2023-04-16T16:18:10.135Z,15.40
2023-04-16T16:20:36.712Z,15.38
2023-04-16T16:23:03.508Z,15.40
2023-04-16T16:25:30.398Z,15.40
2023-04-16T16:27:57.031Z,15.39
2023-04-16T16:30:23.611Z,15.41
2023-04-16T16:32:50.818Z,15.42
2023-04-16T16:35:17.338Z,15.42
2023-04-16T16:37:43.867Z,15.43
2023-04-16T16:40:11.108Z,15.45
2023-04-16T16:42:37.793Z,15.45
2023-04-16T16:45:06.075Z,15.46
2023-04-16T16:47:33.394Z,15.46
2023-04-16T16:50:02.593Z,15.47
2023-04-16T16:52:29.571Z,15.47
2023-04-16T16:54:56.887Z,15.46
2023-04-16T16:57:24.822Z,15.47
2023-04-16T16:59:51.496Z,15.49
2023-04-16T17:02:18.647Z,15.48
2023-04-16T17:04:45.344Z,15.48
2023-04-16T17:07:11.939Z,15.49
2023-04-16T17:09:38.962Z,15.49
2023-04-16T17:12:06.401Z,15.53
2023-04-16T17:14:33.526Z,15.51
2023-04-16T17:17:00.105Z,15.52
2023-04-16T17:19:27.532Z,15.53
2023-04-16T17:21:54.197Z,15.53
2023-04-16T17:24:20.750Z,15.54
2023-04-16T17:26:47.235Z,15.54
2023-04-16T17:29:13.791Z,15.55
2023-04-16T17:31:40.469Z,15.56
2023-04-16T17:34:07.002Z,15.58
2023-04-16T17:36:33.662Z,15.57
2023-04-16T17:39:00.249Z,15.55
2023-04-16T17:41:26.818Z,15.55
2023-04-16T17:43:53.325Z,15.55
2023-04-16T17:46:19.926Z,15.53
2023-04-16T17:48:48.757Z,15.52
2023-04-16T17:51:16.606Z,15.53
2023-04-16T17:53:43.636Z,15.49
2023-04-16T17:56:11.267Z,15.49
2023-04-16T17:58:37.936Z,15.47
2023-04-16T18:01:05.190Z,15.45
2023-04-16T18:03:33.289Z,15.42
2023-04-16T18:05:59.941Z,15.40
2023-04-16T18:08:26.958Z,15.38
2023-04-16T18:10:55.073Z,15.38
2023-04-16T18:13:21.675Z,15.35
2023-04-16T18:15:48.406Z,15.35
2023-04-16T18:18:15.042Z,15.31
2023-04-16T18:20:41.779Z,15.29
2023-04-16T18:23:08.440Z,15.27
2023-04-16T18:25:35.458Z,15.25
2023-04-16T18:28:03.754Z,15.22
2023-04-16T18:30:30.769Z,15.19
2023-04-16T18:33:16.431Z,15.16
2023-04-16T18:35:43.979Z,15.13
2023-04-16T18:38:10.890Z,15.10
2023-04-16T18:40:37.598Z,15.04
2023-04-16T18:43:04.440Z,15.01
2023-04-16T18:45:31.399Z,14.97
2023-04-16T18:47:58.945Z,14.91
2023-04-16T18:50:26.208Z,14.86
2023-04-16T18:52:53.123Z,14.81
2023-04-16T18:55:20.115Z,14.75
2023-04-16T18:57:46.783Z,14.70
2023-04-16T19:00:13.889Z,14.65
2023-04-16T19:02:40.721Z,14.60
2023-04-16T19:05:08.772Z,14.55
2023-04-16T19:07:35.415Z,14.50
2023-04-16T19:10:05.253Z,14.43
2023-04-16T19:12:32.187Z,14.36
2023-04-16T19:14:58.978Z,14.31
2023-04-16T19:17:25.735Z,14.27
2023-04-16T19:19:52.396Z,14.23
2023-04-16T19:22:18.921Z,14.19
2023-04-16T19:24:45.686Z,14.12
2023-04-16T19:27:12.359Z,14.08
2023-04-16T19:29:40.486Z,14.05
2023-04-16T19:32:07.274Z,14.04
2023-04-16T19:34:33.868Z,13.99
2023-04-16T19:37:00.506Z,13.94
2023-04-16T19:39:29.819Z,13.90
2023-04-16T19:41:56.347Z,13.82
2023-04-16T19:44:23.312Z,13.81
2023-04-16T19:46:49.865Z,13.78
2023-04-16T19:49:16.452Z,13.75
2023-04-16T19:51:42.955Z,13.72
2023-04-16T19:54:09.531Z,13.69
2023-04-16T19:56:36.030Z,13.66
2023-04-16T19:59:02.597Z,13.63
2023-04-16T20:01:31.174Z,13.61
2023-04-16T20:03:57.895Z,13.58
2023-04-16T20:06:25.278Z,13.55
2023-04-16T20:08:51.772Z,13.55
2023-04-16T20:11:18.466Z,13.51
2023-04-16T20:13:48.518Z,13.48
2023-04-16T20:16:15.083Z,13.50
2023-04-16T20:18:42.296Z,13.51
2023-04-16T20:21:09.966Z,13.45
2023-04-16T20:23:36.454Z,13.45
2023-04-16T20:26:04.429Z,13.42
2023-04-16T20:28:30.937Z,13.46
2023-04-16T20:30:57.433Z,13.39
2023-04-16T20:33:24.065Z,13.39
2023-04-16T20:35:52.235Z,13.38
2023-04-16T20:38:23.944Z,13.35
2023-04-16T20:40:58.171Z,13.34
2023-04-16T20:43:26.083Z,13.31
2023-04-16T20:45:52.588Z,13.29
2023-04-16T20:48:19.143Z,13.27
2023-04-16T20:50:45.950Z,13.28
2023-04-16T20:53:13.069Z,13.25
2023-04-16T20:55:39.581Z,13.21
2023-04-16T20:58:06.564Z,13.22
2023-04-16T21:00:33.051Z,13.21
2023-04-16T21:02:59.671Z,13.16
2023-04-16T21:05:26.618Z,13.15
2023-04-16T21:07:55.393Z,13.15
2023-04-16T21:10:22.385Z,13.14
2023-04-16T21:12:48.968Z,13.13
2023-04-16T21:15:15.622Z,13.10
2023-04-16T21:17:42.311Z,13.09
2023-04-16T21:20:13.594Z,13.05
2023-04-16T21:22:40.234Z,13.00
2023-04-16T21:25:07.273Z,13.00
2023-04-16T21:27:33.765Z,13.02
2023-04-16T21:30:00.411Z,12.98
2023-04-16T21:32:27.008Z,12.95
2023-04-16T21:34:53.543Z,12.93
2023-04-16T21:37:20.192Z,12.90
2023-04-16T21:39:46.716Z,12.85
2023-04-16T21:42:13.527Z,12.85
2023-04-16T21:44:40.063Z,12.85
2023-04-16T21:47:06.628Z,12.82
2023-04-16T21:49:33.269Z,12.81
2023-04-16T21:52:02.549Z,12.78
2023-04-16T21:54:29.224Z,12.80
2023-04-16T21:56:57.056Z,12.80
2023-04-16T21:59:23.666Z,12.79
2023-04-16T22:01:50.384Z,12.78
2023-04-16T22:04:17.843Z,12.77
2023-04-16T22:06:46.277Z,12.74
2023-04-16T22:09:13.010Z,12.75
2023-04-16T22:11:40.743Z,12.76
2023-04-16T22:14:08.354Z,12.75
2023-04-16T22:16:35.964Z,12.72
2023-04-16T22:19:02.758Z,12.72
2023-04-16T22:21:29.270Z,12.70
2023-04-16T22:23:55.804Z,12.71
2023-04-16T22:26:22.396Z,12.69
2023-04-16T22:28:48.874Z,12.68
2023-04-16T22:31:15.425Z,12.66
2023-04-16T22:33:41.917Z,12.66
2023-04-16T22:36:08.670Z,12.65
2023-04-16T22:38:35.620Z,12.62
2023-04-16T22:41:02.166Z,12.62
2023-04-16T22:43:28.718Z,12.61
2023-04-16T22:46:06.691Z,12.58
2023-04-16T22:48:36.212Z,12.57
2023-04-16T22:51:04.395Z,12.56
2023-04-16T22:53:31.280Z,12.54
2023-04-16T22:55:57.786Z,12.54
2023-04-16T22:58:24.291Z,12.54
2023-04-16T23:00:54.336Z,12.52
2023-04-16T23:03:21.098Z,12.51
2023-04-16T23:05:47.741Z,12.50
2023-04-16T23:08:14.316Z,12.50
2023-04-16T23:10:40.811Z,12.46
2023-04-16T23:13:07.343Z,12.49
2023-04-16T23:15:34.652Z,12.47
2023-04-16T23:18:01.314Z,12.46
2023-04-16T23:20:29.023Z,12.45
2023-04-16T23:22:55.526Z,12.44
2023-04-16T23:25:25.511Z,12.43
2023-04-16T23:27:52.065Z,12.44
2023-04-16T23:30:18.729Z,12.43
2023-04-16T23:32:45.286Z,12.44
2023-04-16T23:35:11.784Z,12.43
2023-04-16T23:37:38.324Z,12.40
2023-04-16T23:40:05.523Z,12.40
2023-04-16T23:42:32.018Z,12.41
2023-04-16T23:44:59.047Z,12.39
2023-04-16T23:47:25.585Z,12.39
2023-04-16T23:49:52.122Z,12.38
2023-04-16T23:52:18.643Z,12.39
2023-04-16T23:54:45.162Z,12.37
2023-04-16T23:57:11.634Z,12.38
2023-04-16T23:59:38.147Z,12.37
